createdAt,value
2019-05-05T00:02:47.549Z,5.92
2019-05-05T00:07:49.249Z,5.95
2019-05-05T00:13:09.223Z,5.92
2019-05-05T00:18:11.280Z,5.98
2019-05-05T00:23:14.577Z,6.01
2019-05-05T00:28:16.394Z,6.00
2019-05-05T00:33:18.090Z,5.96
2019-05-05T00:38:19.655Z,5.83
2019-05-05T00:43:21.207Z,5.76
2019-05-05T00:48:32.204Z,5.72
2019-05-05T00:53:34.285Z,5.68
2019-05-05T00:58:38.911Z,5.62
2019-05-05T01:03:40.484Z,5.57
2019-05-05T01:08:42.144Z,5.57
2019-05-05T01:13:45.550Z,5.62
2019-05-05T01:18:47.245Z,5.63
2019-05-05T01:23:48.893Z,5.65
2019-05-05T01:28:50.586Z,5.59
2019-05-05T01:34:17.826Z,5.57
2019-05-05T01:39:51.200Z,5.52
2019-05-05T01:44:52.779Z,5.53
2019-05-05T01:49:54.642Z,5.56
2019-05-05T01:54:56.170Z,5.57
2019-05-05T01:59:57.899Z,5.56
2019-05-05T02:04:59.467Z,5.57
2019-05-05T02:10:01.264Z,5.55
2019-05-05T02:15:04.247Z,5.43
2019-05-05T02:20:06.223Z,5.34
2019-05-05T02:25:07.769Z,5.24
2019-05-05T02:30:21.591Z,5.18
2019-05-05T02:35:25.637Z,5.13
2019-05-05T02:40:27.043Z,5.01
2019-05-05T02:45:47.879Z,5.01
2019-05-05T02:51:00.710Z,5.04
2019-05-05T02:56:04.016Z,5.13
2019-05-05T03:01:25.842Z,5.20
2019-05-05T03:06:27.526Z,5.21
2019-05-05T03:11:30.591Z,5.16
2019-05-05T03:16:35.748Z,5.16
2019-05-05T03:21:37.925Z,5.11
2019-05-05T03:26:39.811Z,5.11
2019-05-05T03:31:41.382Z,5.00
2019-05-05T03:36:44.164Z,4.91
2019-05-05T03:41:56.740Z,4.80
2019-05-05T03:46:58.433Z,4.71
2019-05-05T03:52:00.132Z,4.65
2019-05-05T03:57:08.247Z,4.65
2019-05-05T04:02:16.446Z,4.75
2019-05-05T04:07:18.175Z,4.73
2019-05-05T04:12:19.899Z,4.73
2019-05-05T04:17:50.342Z,4.80
2019-05-05T04:22:54.070Z,4.85
2019-05-05T04:27:55.366Z,4.84
2019-05-05T04:32:56.969Z,4.86
2019-05-05T04:37:58.538Z,4.91
2019-05-05T04:43:00.254Z,4.92
2019-05-05T04:48:10.330Z,4.89
2019-05-05T04:53:16.601Z,4.88
2019-05-05T04:58:18.218Z,4.96
2019-05-05T05:03:38.157Z,4.98
2019-05-05T05:08:39.848Z,4.98
2019-05-05T05:13:41.446Z,4.89
2019-05-05T05:18:44.590Z,4.92
2019-05-05T05:23:46.525Z,5.13
2019-05-05T05:28:48.107Z,5.20
2019-05-05T05:33:49.687Z,5.14
2019-05-05T05:38:54.233Z,5.18
2019-05-05T05:44:15.565Z,5.17
2019-05-05T05:49:24.259Z,5.07
2019-05-05T05:54:25.965Z,5.15
2019-05-05T05:59:27.535Z,5.10
2019-05-05T06:04:29.081Z,4.93
2019-05-05T06:09:30.999Z,4.83
2019-05-05T06:14:34.181Z,4.92
2019-05-05T06:19:36.029Z,5.09
2019-05-05T06:24:37.590Z,5.30
2019-05-05T06:29:39.143Z,5.37
2019-05-05T06:34:40.718Z,5.38
2019-05-05T06:39:43.952Z,5.43
2019-05-05T06:45:05.495Z,5.46
2019-05-05T06:50:07.242Z,5.46
2019-05-05T06:55:08.892Z,5.45
2019-05-05T07:00:11.360Z,5.43
2019-05-05T07:05:14.280Z,5.52
2019-05-05T07:10:16.080Z,5.64
2019-05-05T07:15:17.724Z,5.75
2019-05-05T07:20:19.415Z,5.85
2019-05-05T07:25:20.971Z,5.95
2019-05-05T07:30:24.323Z,6.02
2019-05-05T07:35:36.433Z,6.04
2019-05-05T07:40:38.099Z,6.12
2019-05-05T07:45:39.662Z,6.17
2019-05-05T07:50:43.629Z,6.29
2019-05-05T07:55:44.877Z,6.41
2019-05-05T08:00:46.450Z,6.52
2019-05-05T08:05:49.476Z,6.54
2019-05-05T08:10:51.044Z,6.71
2019-05-05T08:15:59.771Z,6.89
2019-05-05T08:21:00.843Z,6.93
2019-05-05T08:26:09.639Z,6.90
2019-05-05T08:31:16.980Z,6.89
2019-05-05T08:36:18.598Z,6.99
2019-05-05T08:41:20.191Z,7.13
2019-05-05T08:46:21.857Z,7.22
2019-05-05T08:51:24.670Z,7.31
2019-05-05T08:56:26.604Z,7.46
2019-05-05T09:01:28.318Z,7.62
2019-05-05T09:06:29.854Z,7.70
2019-05-05T09:11:31.432Z,7.85
2019-05-05T09:16:33.588Z,7.94
2019-05-05T09:21:35.271Z,8.12
2019-05-05T09:26:49.202Z,8.10
2019-05-05T09:31:50.778Z,8.12
2019-05-05T09:36:54.352Z,8.22
2019-05-05T09:41:55.939Z,8.36
2019-05-05T09:46:57.638Z,8.54
2019-05-05T09:51:59.214Z,8.66
2019-05-05T09:57:00.828Z,8.81
2019-05-05T10:02:04.472Z,8.79
2019-05-05T10:07:06.106Z,8.89
2019-05-05T10:12:07.681Z,8.67
2019-05-05T10:17:09.306Z,8.56
2019-05-05T10:22:10.873Z,8.73
2019-05-05T10:27:12.570Z,8.96
2019-05-05T10:32:14.339Z,9.07
2019-05-05T10:37:16.042Z,9.11
2019-05-05T10:42:19.779Z,9.18
2019-05-05T10:47:21.477Z,9.03
2019-05-05T10:52:23.038Z,9.12
2019-05-05T10:57:24.775Z,9.27
2019-05-05T11:02:26.759Z,9.10
2019-05-05T11:07:29.237Z,8.99
2019-05-05T11:12:30.904Z,8.94
2019-05-05T11:17:32.466Z,8.93
2019-05-05T11:22:34.717Z,8.98
2019-05-05T11:27:36.475Z,9.02
2019-05-05T11:32:56.084Z,9.08
2019-05-05T11:37:57.748Z,9.08
2019-05-05T11:42:59.349Z,9.08
2019-05-05T11:48:00.932Z,9.14
2019-05-05T11:53:03.906Z,9.19
2019-05-05T11:58:05.679Z,9.22
2019-05-05T12:03:07.285Z,9.41
2019-05-05T12:08:08.973Z,9.72
2019-05-05T12:13:10.682Z,9.79
2019-05-05T12:18:14.196Z,10.13
2019-05-05T12:23:15.749Z,10.46
2019-05-05T12:28:34.633Z,10.39
2019-05-05T12:33:36.469Z,10.49
2019-05-05T12:38:38.151Z,10.49
2019-05-05T12:43:39.856Z,10.26
2019-05-05T12:48:43.795Z,10.09
2019-05-05T12:53:45.633Z,9.99
2019-05-05T12:58:47.313Z,9.81
2019-05-05T13:03:48.878Z,9.67
2019-05-05T13:08:50.464Z,9.54
2019-05-05T13:13:54.369Z,9.48
2019-05-05T13:18:55.708Z,9.47
2019-05-05T13:24:23.845Z,9.47
2019-05-05T13:29:25.726Z,9.48
2019-05-05T13:34:27.351Z,9.49
2019-05-05T13:39:29.035Z,9.50
2019-05-05T13:44:49.002Z,9.54
2019-05-05T13:49:51.887Z,9.61
2019-05-05T13:54:59.176Z,9.68
2019-05-05T14:00:00.782Z,9.70
2019-05-05T14:05:04.602Z,9.73
2019-05-05T14:10:06.474Z,9.74
2019-05-05T14:15:13.766Z,9.78
2019-05-05T14:20:15.937Z,9.82
2019-05-05T14:25:25.975Z,9.89
2019-05-05T14:30:54.194Z,9.92
2019-05-05T14:36:24.354Z,9.95
2019-05-05T14:41:26.034Z,9.99
2019-05-05T14:46:27.607Z,10.07
2019-05-05T14:51:29.339Z,10.20
2019-05-05T14:56:36.584Z,11.01
2019-05-05T15:01:34.557Z,12.97
2019-05-05T15:06:44.017Z,13.90
2019-05-05T15:11:50.892Z,14.15
2019-05-05T15:16:54.253Z,14.44
2019-05-05T15:21:56.050Z,15.15
2019-05-05T15:26:57.620Z,14.65
2019-05-05T15:37:16.038Z,14.17
2019-05-05T15:42:17.715Z,14.35
2019-05-05T15:47:19.405Z,15.51
2019-05-05T15:52:21.246Z,16.17
2019-05-05T15:57:24.147Z,16.86
2019-05-05T16:02:25.813Z,17.32
2019-05-05T16:07:27.402Z,17.62
2019-05-05T16:12:34.023Z,17.61
2019-05-05T16:17:38.974Z,15.94
2019-05-05T16:23:00.114Z,15.40
2019-05-05T16:28:05.435Z,14.53
2019-05-05T16:33:05.371Z,13.28
2019-05-05T16:38:06.924Z,12.56
2019-05-05T16:43:08.481Z,12.34
2019-05-05T16:48:10.093Z,13.43
2019-05-05T16:53:31.324Z,13.60
2019-05-05T16:58:33.371Z,13.60
2019-05-05T17:03:35.087Z,12.85
2019-05-05T17:08:36.752Z,12.49
2019-05-05T17:13:49.710Z,12.60
2019-05-05T17:18:59.948Z,13.08
2019-05-05T17:24:01.514Z,13.54
2019-05-05T17:29:03.751Z,12.74
2019-05-05T17:34:05.411Z,12.03
2019-05-05T17:39:07.339Z,11.53
2019-05-05T17:44:14.148Z,11.13
2019-05-05T17:49:35.374Z,10.86
2019-05-05T17:54:40.365Z,10.64
2019-05-05T17:59:43.971Z,10.48
2019-05-05T18:04:46.026Z,10.35
2019-05-05T18:10:16.092Z,10.23
2019-05-05T18:15:36.344Z,10.18
2019-05-05T18:20:37.934Z,10.12
2019-05-05T18:25:39.573Z,10.25
2019-05-05T18:30:41.177Z,10.20
2019-05-05T18:35:44.393Z,10.15
2019-05-05T18:40:47.221Z,10.10
2019-05-05T18:46:00.097Z,10.04
2019-05-05T18:51:03.759Z,9.96
2019-05-05T18:56:05.518Z,9.92
2019-05-05T19:01:17.531Z,9.89
2019-05-05T19:06:50.933Z,9.92
2019-05-05T19:11:54.410Z,9.93
2019-05-05T19:16:56.192Z,9.87
2019-05-05T19:22:01.868Z,9.85
2019-05-05T19:27:03.771Z,9.82
2019-05-05T19:32:05.562Z,9.78
2019-05-05T19:37:07.274Z,9.77
2019-05-05T19:42:08.934Z,9.71
2019-05-05T19:47:15.598Z,9.66
2019-05-05T19:52:17.353Z,9.60
2019-05-05T19:57:18.917Z,9.56
2019-05-05T20:02:20.471Z,9.52
2019-05-05T20:07:22.053Z,9.50
2019-05-05T20:12:23.686Z,9.43
2019-05-05T20:17:30.554Z,9.36
2019-05-05T20:22:34.612Z,9.33
2019-05-05T20:27:35.985Z,9.29
2019-05-05T20:32:56.477Z,9.20
2019-05-05T20:38:05.842Z,9.12
2019-05-05T20:43:07.441Z,9.10
2019-05-05T20:48:09.077Z,9.04
2019-05-05T20:53:10.642Z,9.01
2019-05-05T20:58:14.176Z,8.99
2019-05-05T21:03:15.850Z,8.96
2019-05-05T21:08:18.840Z,8.91
2019-05-05T21:13:20.399Z,8.90
2019-05-05T21:18:23.927Z,8.89
2019-05-05T21:23:34.832Z,8.87
2019-05-05T21:28:36.380Z,8.84
2019-05-05T21:33:37.937Z,8.78
2019-05-05T21:38:39.629Z,8.74
2019-05-05T21:43:41.214Z,8.70
2019-05-05T21:48:44.761Z,8.66
2019-05-05T21:54:13.836Z,8.62
2019-05-05T21:59:16.947Z,8.60
2019-05-05T22:04:18.524Z,8.56
2019-05-05T22:09:20.362Z,8.58
2019-05-05T22:14:22.013Z,8.56
2019-05-05T22:19:25.958Z,8.54
2019-05-05T22:24:27.531Z,8.47
2019-05-05T22:29:29.088Z,8.40
2019-05-05T22:34:30.679Z,8.38
2019-05-05T22:39:33.812Z,8.34
2019-05-05T22:44:35.636Z,8.34
2019-05-05T22:49:37.186Z,8.34
2019-05-05T22:54:38.917Z,8.32
2019-05-05T22:59:40.666Z,8.28
2019-05-05T23:04:57.223Z,8.22
2019-05-05T23:09:58.796Z,8.16
2019-05-05T23:15:00.409Z,8.08
2019-05-05T23:20:17.611Z,8.05
2019-05-05T23:25:27.451Z,7.98
2019-05-05T23:30:39.472Z,7.87
2019-05-05T23:35:34.424Z,7.83
2019-05-05T23:40:36.138Z,7.73
2019-05-05T23:45:37.799Z,7.68
2019-05-05T23:50:39.375Z,7.64
2019-05-05T23:55:40.943Z,7.57
